Terminal Aerodrome Forecast
Issued by NWS

Home | Current Version | Previous Version | Graphics & Text | Print | Product List | Glossary On
Versions: 1 2 3 4 5 6 7 8 9 10 11 12 13 14 15 16 17 18 19 20 21 22 23
000
FTUS43 KIWX 241727
TAFSBN
TAF
KSBN 241727Z 2418/2518 20012G21KT P6SM -SHRA BKN025
      TEMPO 2418/2420 BKN010
     FM242100 21009KT 5SM SHRA VCTS BKN025CB
     FM250100 21007KT P6SM SCT025 BKN100
     FM250900 22006KT P6SM BKN020=

USA.gov is the U.S. government's official web portal to all federal, state and local government web resources and services.